createdAt,value
2023-04-28T00:02:40.995Z,86.52
2023-04-28T00:07:46.663Z,86.79
2023-04-28T00:12:52.081Z,86.74
2023-04-28T00:17:57.645Z,86.73
2023-04-28T00:23:03.226Z,86.81
2023-04-28T00:28:08.737Z,86.84
2023-04-28T00:33:14.344Z,87.18
2023-04-28T00:38:19.804Z,87.71
2023-04-28T00:43:25.480Z,88.15
2023-04-28T00:48:31.250Z,88.02
2023-04-28T00:53:37.739Z,88.06
2023-04-28T00:58:43.619Z,87.65
2023-04-28T01:03:49.644Z,87.64
2023-04-28T01:08:55.997Z,87.40
2023-04-28T01:14:01.584Z,87.43
2023-04-28T01:19:17.570Z,87.99
2023-04-28T01:24:23.210Z,88.47
2023-04-28T01:29:28.780Z,89.11
2023-04-28T01:34:34.483Z,89.34
2023-04-28T01:39:39.986Z,89.36
2023-04-28T01:44:45.298Z,89.15
2023-04-28T01:49:50.809Z,89.32
2023-04-28T01:54:56.954Z,89.08
2023-04-28T02:00:02.501Z,89.52
2023-04-28T02:05:09.401Z,89.96
2023-04-28T02:10:14.757Z,90.01
2023-04-28T02:15:20.550Z,89.77
2023-04-28T02:20:27.802Z,89.92
2023-04-28T02:25:33.325Z,90.60
2023-04-28T02:30:38.837Z,90.54
2023-04-28T02:35:44.390Z,90.60
2023-04-28T02:40:57.366Z,90.92
2023-04-28T02:46:04.620Z,91.09
2023-04-28T02:51:10.199Z,91.30
2023-04-28T02:56:16.394Z,91.13
2023-04-28T03:01:21.953Z,91.48
2023-04-28T03:06:28.405Z,91.25
2023-04-28T03:11:33.821Z,91.32
2023-04-28T03:16:39.506Z,91.40
2023-04-28T03:21:45.145Z,91.08
2023-04-28T03:26:51.658Z,90.72
2023-04-28T03:31:57.167Z,91.43
2023-04-28T03:37:02.837Z,92.02
2023-04-28T03:42:08.789Z,92.23
2023-04-28T03:47:32.844Z,92.43
2023-04-28T03:52:38.844Z,92.48
2023-04-28T03:57:45.616Z,92.46
2023-04-28T04:02:51.166Z,92.59
2023-04-28T04:07:58.035Z,91.92
2023-04-28T04:13:03.635Z,91.97
2023-04-28T04:18:09.130Z,92.50
2023-04-28T04:23:31.521Z,93.09
2023-04-28T04:28:37.225Z,93.58
2023-04-28T04:33:43.750Z,88.20
2023-04-28T04:38:50.203Z,77.84
2023-04-28T04:43:58.404Z,69.27
2023-04-28T04:49:07.896Z,62.88
2023-04-28T04:54:13.387Z,62.61
2023-04-28T04:59:19.449Z,58.74
2023-04-28T05:04:40.844Z,52.86
2023-04-28T05:09:47.155Z,49.16
2023-04-28T05:14:53.462Z,45.52
2023-04-28T05:19:59.725Z,43.05
2023-04-28T05:25:06.998Z,40.79
2023-04-28T05:30:15.326Z,38.27
2023-04-28T05:35:21.074Z,35.85
2023-04-28T05:42:51.523Z,33.53
2023-04-28T05:47:57.253Z,32.06
2023-04-28T05:53:03.840Z,30.78
2023-04-28T05:58:09.369Z,29.46
2023-04-28T06:03:18.983Z,27.75
2023-04-28T06:08:25.638Z,26.86
2023-04-28T06:13:34.413Z,25.92
2023-04-28T06:18:41.750Z,25.72
2023-04-28T06:23:47.137Z,24.11
2023-04-28T06:28:52.953Z,23.68
2023-04-28T06:33:58.542Z,23.47
2023-04-28T06:39:04.443Z,22.87
2023-04-28T06:44:11.859Z,21.51
2023-04-28T06:49:17.529Z,21.40
2023-04-28T06:54:22.877Z,20.75
2023-04-28T06:59:28.532Z,20.28
2023-04-28T07:04:34.059Z,20.07
2023-04-28T07:09:39.667Z,19.56
2023-04-28T07:14:45.640Z,19.61
2023-04-28T07:19:51.217Z,18.73
2023-04-28T07:24:56.786Z,18.62
2023-04-28T07:30:11.625Z,18.57
2023-04-28T07:35:24.711Z,18.13
2023-04-28T07:40:30.338Z,18.22
2023-04-28T07:45:38.183Z,17.31
2023-04-28T07:50:43.743Z,18.44
2023-04-28T07:55:49.162Z,20.14
2023-04-28T08:00:54.592Z,22.20
2023-04-28T08:06:01.444Z,22.52
2023-04-28T08:11:08.298Z,22.84
2023-04-28T08:16:13.868Z,23.13
2023-04-28T08:21:19.360Z,23.62
2023-04-28T08:26:24.769Z,25.23
2023-04-28T08:31:30.342Z,25.69
2023-04-28T08:36:35.780Z,26.48
2023-04-28T08:41:41.706Z,26.43
2023-04-28T08:46:49.719Z,26.24
2023-04-28T08:51:59.432Z,25.65
2023-04-28T08:57:05.678Z,26.01
2023-04-28T09:02:11.933Z,25.23
2023-04-28T09:07:17.713Z,23.11
2023-04-28T09:12:36.034Z,22.12
2023-04-28T09:17:52.277Z,20.82
2023-04-28T09:23:15.781Z,19.46
2023-04-28T09:28:24.205Z,19.30
2023-04-28T09:33:29.963Z,18.79
2023-04-28T09:38:45.366Z,20.54
2023-04-28T09:43:50.862Z,21.62
2023-04-28T09:49:02.904Z,21.19
2023-04-28T09:54:08.778Z,20.57
2023-04-28T09:59:15.099Z,20.01
2023-04-28T10:04:21.093Z,20.02
2023-04-28T10:09:28.868Z,20.96
2023-04-28T10:14:35.725Z,21.87
2023-04-28T10:19:41.748Z,22.32
2023-04-28T10:25:01.963Z,21.89
2023-04-28T10:35:44.552Z,20.52
2023-04-28T10:40:51.928Z,19.93
2023-04-28T10:46:08.480Z,19.41
2023-04-28T10:51:32.028Z,21.16
2023-04-28T10:56:38.866Z,21.60
2023-04-28T11:01:45.981Z,20.58
2023-04-28T11:07:13.457Z,20.47
2023-04-28T11:12:19.225Z,20.34
2023-04-28T11:17:39.827Z,19.71
2023-04-28T11:22:45.434Z,19.88
2023-04-28T11:27:50.988Z,19.68
2023-04-28T11:32:56.758Z,20.12
2023-04-28T11:38:05.896Z,20.88
2023-04-28T11:43:11.257Z,21.10
2023-04-28T11:48:23.524Z,21.92
2023-04-28T11:53:43.559Z,22.31
2023-04-28T11:59:03.285Z,22.22
2023-04-28T12:04:08.440Z,21.98
2023-04-28T12:09:25.023Z,22.20
2023-04-28T12:14:35.918Z,22.64
2023-04-28T12:19:46.348Z,22.80
2023-04-28T12:25:07.843Z,22.62
2023-04-28T12:30:27.909Z,22.84
2023-04-28T12:35:33.701Z,23.29
2023-04-28T12:40:39.077Z,23.99
2023-04-28T12:45:44.762Z,26.20
2023-04-28T12:50:50.486Z,27.51
2023-04-28T12:55:56.684Z,27.32
2023-04-28T13:01:02.208Z,26.45
2023-04-28T13:06:08.370Z,26.91
2023-04-28T13:11:22.775Z,27.99
2023-04-28T13:16:29.300Z,27.61
2023-04-28T13:21:35.499Z,26.58
2023-04-28T13:26:44.330Z,25.73
2023-04-28T13:31:49.830Z,25.08
2023-04-28T13:36:55.449Z,24.58
2023-04-28T13:42:01.802Z,26.28
2023-04-28T13:47:09.249Z,25.93
2023-04-28T13:52:15.051Z,27.38
2023-04-28T13:57:20.445Z,27.04
2023-04-28T14:02:27.412Z,25.97
2023-04-28T14:07:33.343Z,25.67
2023-04-28T14:12:39.189Z,27.35
2023-04-28T14:17:44.677Z,28.53
2023-04-28T14:22:50.662Z,28.58
2023-04-28T14:27:56.267Z,28.02
2023-04-28T14:33:01.975Z,28.03
2023-04-28T14:38:07.861Z,27.70
2023-04-28T14:43:14.096Z,27.53
2023-04-28T14:48:20.202Z,30.06
2023-04-28T14:53:25.999Z,30.02
2023-04-28T14:58:31.750Z,30.24
2023-04-28T15:03:37.555Z,29.58
2023-04-28T15:08:43.277Z,29.48
2023-04-28T15:13:48.594Z,29.15
2023-04-28T15:18:53.997Z,29.59
2023-04-28T15:24:02.226Z,29.90
2023-04-28T15:29:07.630Z,29.56
2023-04-28T15:34:13.627Z,30.02
2023-04-28T15:39:19.089Z,30.18
2023-04-28T15:44:24.581Z,30.50
2023-04-28T15:49:30.081Z,30.54
2023-04-28T15:54:35.629Z,30.46
2023-04-28T15:59:41.139Z,30.62
2023-04-28T16:04:46.889Z,30.87
2023-04-28T16:09:53.737Z,30.99
2023-04-28T16:14:59.466Z,31.09
2023-04-28T16:20:06.026Z,31.75
2023-04-28T16:25:11.939Z,31.63
2023-04-28T16:30:17.919Z,32.56
2023-04-28T16:35:23.785Z,32.56
2023-04-28T16:40:29.690Z,32.78
2023-04-28T16:45:35.045Z,33.54
2023-04-28T16:50:41.208Z,33.35
2023-04-28T16:55:46.936Z,33.09
2023-04-28T17:00:52.421Z,34.58
2023-04-28T17:05:59.308Z,33.71
2023-04-28T17:11:06.307Z,33.74
2023-04-28T17:16:12.416Z,33.84
2023-04-28T17:21:18.124Z,35.36
2023-04-28T17:26:23.825Z,36.56
2023-04-28T17:31:30.132Z,36.28
2023-04-28T17:36:35.689Z,36.44
2023-04-28T17:41:41.669Z,38.23
2023-04-28T17:46:47.289Z,38.76
2023-04-28T17:51:53.155Z,38.46
2023-04-28T17:56:58.646Z,38.86
2023-04-28T18:02:05.463Z,39.97
2023-04-28T18:07:11.037Z,41.54
2023-04-28T18:12:17.194Z,43.79
2023-04-28T18:17:23.332Z,44.81
2023-04-28T18:22:28.894Z,45.45
2023-04-28T18:27:34.908Z,45.54
2023-04-28T18:32:40.701Z,44.98
2023-04-28T18:37:46.983Z,47.07
2023-04-28T18:42:53.237Z,47.30
2023-04-28T18:47:59.071Z,47.56
2023-04-28T18:53:05.409Z,50.03
2023-04-28T18:58:11.809Z,49.53
2023-04-28T19:03:18.569Z,49.65
2023-04-28T19:08:24.333Z,48.32
2023-04-28T19:13:29.740Z,48.61
2023-04-28T19:18:35.142Z,48.36
2023-04-28T19:23:40.911Z,48.54
2023-04-28T19:28:46.560Z,48.84
2023-04-28T19:33:52.115Z,48.52
2023-04-28T19:38:57.521Z,48.94
2023-04-28T19:44:03.403Z,48.61
2023-04-28T19:49:08.764Z,48.61
2023-04-28T19:54:15.707Z,49.50
2023-04-28T19:59:22.487Z,50.03
2023-04-28T20:04:30.632Z,51.03
2023-04-28T20:09:37.810Z,50.95
2023-04-28T20:14:44.442Z,51.11
2023-04-28T20:19:50.184Z,51.79
2023-04-28T20:24:58.475Z,51.56
2023-04-28T20:30:04.904Z,52.80
2023-04-28T20:35:11.213Z,53.31
2023-04-28T20:40:16.903Z,54.87
2023-04-28T20:45:23.440Z,54.00
2023-04-28T20:50:33.462Z,53.60
2023-04-28T20:55:38.952Z,53.53
2023-04-28T21:00:44.600Z,53.45
2023-04-28T21:05:50.246Z,53.36
2023-04-28T21:10:55.675Z,53.26
2023-04-28T21:16:01.724Z,53.41
2023-04-28T21:21:07.373Z,53.22
2023-04-28T21:26:13.402Z,53.85
2023-04-28T21:31:18.901Z,53.70
2023-04-28T21:36:24.720Z,54.14
2023-04-28T21:41:30.166Z,54.11
2023-04-28T21:46:36.085Z,54.46
2023-04-28T21:51:42.927Z,54.85
2023-04-28T21:56:48.438Z,54.84
2023-04-28T22:01:54.872Z,54.80
2023-04-28T22:07:01.123Z,54.70
2023-04-28T22:12:06.691Z,55.50
2023-04-28T22:17:12.221Z,56.17
2023-04-28T22:22:19.079Z,56.46
2023-04-28T22:27:33.194Z,58.26
2023-04-28T22:32:38.784Z,58.39
2023-04-28T22:37:44.335Z,59.46
2023-04-28T22:42:50.083Z,60.79
2023-04-28T22:47:56.535Z,61.14
2023-04-28T22:53:03.592Z,61.64
2023-04-28T22:58:08.959Z,62.29
2023-04-28T23:03:14.544Z,63.43
2023-04-28T23:08:20.153Z,64.35
2023-04-28T23:13:25.953Z,64.61
2023-04-28T23:18:32.882Z,66.33
2023-04-28T23:23:38.341Z,66.89
2023-04-28T23:28:43.766Z,67.56
2023-04-28T23:33:49.235Z,68.20
2023-04-28T23:38:54.605Z,68.92
2023-04-28T23:44:00.163Z,69.56
2023-04-28T23:49:05.785Z,69.44
2023-04-28T23:54:11.581Z,69.00
2023-04-28T23:59:17.529Z,69.37
